Time;durP1;ratioP1;P1;durP2;ratioP2;P2;SDS_P1;SDS_P2;PMS_P1;PMS_P2;Temp;Humidity;BMP_temperature;BMP_pressure;BME280_temperature;BME280_humidity;BME280_pressure;Samples;Min_cycle;Max_cycle;Signal;HPM_P1;HPM_P2
2023/05/31 00:02:26;;;;;;;4.85;2.15;;;;;;;12.61;59.17;101933.13;4974135;28;20058;-75
2023/05/31 00:04:53;;;;;;;5.82;2.03;;;;;;;12.54;59.17;101934.69;4974460;28;20062;-75
2023/05/31 00:07:19;;;;;;;5.78;2.10;;;;;;;12.69;59.06;101941.31;4974196;28;20046;-75
2023/05/31 00:09:46;;;;;;;9.20;2.05;;;;;;;12.50;59.79;101936.81;4974076;28;20109;-74
2023/05/31 00:12:12;;;;;;;9.82;2.58;;;;;;;12.83;59.11;101931.97;4974265;28;20082;-75
2023/05/31 00:14:39;;;;;;;7.70;2.15;;;;;;;12.76;59.10;101930.84;4973965;28;20046;-74
2023/05/31 00:17:05;;;;;;;3.92;1.83;;;;;;;12.80;59.01;101925.06;4974426;28;20047;-75
2023/05/31 00:19:52;;;;;;;8.07;1.75;;;;;;;12.49;60.29;101935.13;4973508;28;20043;-74
2023/05/31 00:22:18;;;;;;;4.90;1.80;;;;;;;12.53;60.20;101930.31;4973845;28;20066;-74
2023/05/31 00:24:45;;;;;;;7.13;2.60;;;;;;;12.31;60.79;101934.97;4973719;28;20081;-74
2023/05/31 00:27:12;;;;;;;7.80;2.03;;;;;;;12.49;60.86;101934.28;4973796;28;20586;-74
2023/05/31 00:29:39;;;;;;;10.95;2.53;;;;;;;12.41;61.23;101938.50;4977813;28;20058;-75
2023/05/31 00:32:05;;;;;;;5.97;2.17;;;;;;;12.28;61.84;101932.59;5013044;28;20064;-74
2023/05/31 00:34:32;;;;;;;5.85;2.10;;;;;;;12.27;62.04;101924.66;5012553;28;20429;-75
2023/05/31 00:36:58;;;;;;;7.82;1.92;;;;;;;12.20;62.49;101935.13;4993770;28;20057;-74
2023/05/31 00:39:25;;;;;;;6.43;2.20;;;;;;;12.12;62.83;101943.06;4992855;28;20062;-74
2023/05/31 00:41:52;;;;;;;9.23;1.95;;;;;;;12.05;63.21;101940.09;4993242;28;20053;-74
2023/05/31 00:44:18;;;;;;;4.93;1.73;;;;;;;12.14;63.34;101947.31;4992809;28;20050;-74
2023/05/31 00:46:45;;;;;;;8.82;2.08;;;;;;;12.20;63.00;101937.81;4992753;28;20061;-74
2023/05/31 00:49:12;;;;;;;3.42;1.70;;;;;;;12.05;63.38;101940.09;4977733;28;20051;-74
2023/05/31 00:51:39;;;;;;;5.03;1.98;;;;;;;12.24;63.25;101935.69;4974055;28;20117;-74
2023/05/31 00:54:06;;;;;;;9.40;2.03;;;;;;;12.38;63.00;101932.56;4973286;28;20051;-74
2023/05/31 00:56:33;;;;;;;5.22;1.88;;;;;;;12.06;63.36;101935.53;4972429;28;20047;-74
2023/05/31 00:59:00;;;;;;;9.48;1.85;;;;;;;12.08;63.18;101937.13;4973110;28;20491;-73
2023/05/31 01:01:32;;;;;;;5.03;1.85;;;;;;;12.34;62.71;101926.63;4973287;28;20801;-74
2023/05/31 01:04:01;;;;;;;4.93;1.95;;;;;;;12.17;62.51;101930.91;4973156;28;20050;-74
2023/05/31 01:07:12;;;;;;;5.10;1.98;;;;;;;12.21;62.83;101928.78;4973264;28;20463;-74
2023/05/31 01:09:42;;;;;;;4.85;1.75;;;;;;;12.23;62.63;101929.47;4971518;28;20050;-74
2023/05/31 01:12:21;;;;;;;9.93;2.15;;;;;;;12.06;62.98;101940.94;4973057;28;20051;-73
2023/05/31 01:15:09;;;;;;;7.80;2.08;;;;;;;11.95;63.37;101939.22;4963913;28;20046;-73
2023/05/31 01:17:46;;;;;;;5.28;2.15;;;;;;;11.95;63.70;101938.38;4972248;28;20042;-73
2023/05/31 01:20:17;;;;;;;8.30;2.10;;;;;;;11.87;63.84;101934.53;4964947;28;20049;-73
2023/05/31 01:23:03;;;;;;;7.40;2.00;;;;;;;11.86;63.94;101938.22;4971886;28;20455;-73
2023/05/31 01:25:48;;;;;;;8.07;1.65;;;;;;;11.69;64.18;101947.81;4972074;28;20489;-73
2023/05/31 01:28:16;;;;;;;7.47;2.15;;;;;;;11.72;64.17;101941.28;4972193;28;20123;-73
2023/05/31 01:30:45;;;;;;;7.03;1.95;;;;;;;11.68;64.28;101937.19;4993569;28;20050;-74
2023/05/31 01:33:12;;;;;;;6.45;2.03;;;;;;;11.61;64.00;101942.22;5011582;28;20485;-73
2023/05/31 01:35:39;;;;;;;5.78;1.88;;;;;;;11.68;63.88;101951.47;5010969;28;20053;-74
2023/05/31 01:38:05;;;;;;;8.73;2.20;;;;;;;11.88;63.13;101938.06;5010514;28;20045;-73
2023/05/31 01:40:34;;;;;;;3.67;2.00;;;;;;;11.87;62.62;101942.59;5010809;28;20058;-73
2023/05/31 01:43:03;;;;;;;11.13;2.00;;;;;;;11.63;62.71;101947.47;5010854;28;20107;-73
2023/05/31 01:45:30;;;;;;;7.97;1.95;;;;;;;11.69;62.96;101949.66;5010566;28;20045;-73
2023/05/31 01:48:05;;;;;;;4.95;1.90;;;;;;;11.93;62.27;101958.19;5010791;28;20064;-73
2023/05/31 01:50:36;;;;;;;5.50;1.80;;;;;;;12.01;61.93;101951.28;5010723;28;20050;-74
2023/05/31 01:53:04;;;;;;;7.20;2.13;;;;;;;12.08;61.72;101941.66;5011174;28;20074;-74
2023/05/31 01:55:30;;;;;;;5.63;2.13;;;;;;;12.05;61.68;101948.16;5010458;28;20054;-75
2023/05/31 01:57:58;;;;;;;10.00;2.15;;;;;;;12.05;60.88;101936.53;5009607;28;20049;-74
2023/05/31 02:00:26;;;;;;;6.53;2.13;;;;;;;12.11;61.05;101938.69;5010368;28;20255;-74
2023/05/31 02:02:53;;;;;;;10.68;2.22;;;;;;;12.11;60.77;101939.53;5009545;28;20461;-74
2023/05/31 02:05:20;;;;;;;7.78;2.03;;;;;;;12.17;60.91;101933.59;5010300;28;20399;-74
2023/05/31 02:07:50;;;;;;;9.27;1.95;;;;;;;12.20;61.00;101940.50;5009968;28;20120;-74
2023/05/31 02:10:17;;;;;;;6.93;1.77;;;;;;;12.18;60.99;101937.13;5010816;28;20050;-75
2023/05/31 02:12:43;;;;;;;8.10;2.20;;;;;;;12.16;61.47;101936.41;5010646;28;20064;-74
2023/05/31 02:15:13;;;;;;;6.88;2.28;;;;;;;12.13;61.67;101934.84;5011507;28;20046;-74
2023/05/31 02:17:43;;;;;;;6.43;1.98;;;;;;;12.13;61.90;101934.00;5000592;28;20042;-74
2023/05/31 02:20:14;;;;;;;6.30;1.90;;;;;;;12.09;61.96;101933.44;5008412;28;20133;-71
2023/05/31 02:22:42;;;;;;;6.93;2.20;;;;;;;12.01;62.77;101938.66;5010266;28;20046;-71
2023/05/31 02:25:10;;;;;;;6.07;2.15;;;;;;;12.05;62.62;101940.09;5010572;28;20436;-71
2023/05/31 02:27:37;;;;;;;9.00;2.25;;;;;;;11.97;62.94;101941.75;5009578;28;20173;-69
2023/05/31 02:30:06;;;;;;;6.65;2.20;;;;;;;11.91;63.29;101945.88;5005107;28;20368;-70
2023/05/31 02:32:35;;;;;;;8.48;3.00;;;;;;;11.75;64.23;101945.53;4991721;28;20516;-71
2023/05/31 02:35:04;;;;;;;14.95;2.60;;;;;;;11.83;63.97;101943.00;4991250;28;20137;-71
2023/05/31 02:37:31;;;;;;;6.97;2.63;;;;;;;11.83;64.30;101941.19;4990818;28;20046;-70
2023/05/31 02:39:58;;;;;;;7.65;2.10;;;;;;;11.83;64.22;101943.00;4991145;28;20046;-71
2023/05/31 02:42:25;;;;;;;12.23;2.72;;;;;;;11.84;64.55;101933.97;4990152;28;20050;-71
2023/05/31 02:44:52;;;;;;;7.88;2.75;;;;;;;11.81;64.71;101934.25;4991481;28;20121;-70
2023/05/31 02:47:19;;;;;;;5.30;2.40;;;;;;;11.77;64.92;101940.91;4991310;28;20047;-71
2023/05/31 02:49:45;;;;;;;6.35;2.25;;;;;;;11.79;65.02;101944.28;4991333;28;20098;-70
2023/05/31 02:52:12;;;;;;;9.38;2.20;;;;;;;11.74;65.33;101933.94;4991885;28;20446;-69
2023/05/31 02:54:38;;;;;;;3.95;1.90;;;;;;;11.78;65.51;101938.06;4991328;28;20050;-71
2023/05/31 02:57:05;;;;;;;4.43;2.17;;;;;;;11.77;65.49;101933.69;4991197;28;20049;-71
2023/05/31 02:59:32;;;;;;;8.35;2.10;;;;;;;11.75;65.67;101937.47;4990745;28;20058;-69
2023/05/31 03:01:58;;;;;;;4.90;1.98;;;;;;;11.76;65.69;101931.09;4991015;28;20046;-69
2023/05/31 03:04:25;;;;;;;7.32;2.40;;;;;;;11.69;65.78;101939.75;4990845;28;20151;-70
2023/05/31 03:06:52;;;;;;;7.65;2.13;;;;;;;11.59;66.61;101938.00;4991473;28;20053;-70
2023/05/31 03:09:18;;;;;;;7.78;2.60;;;;;;;11.62;66.18;101935.00;4991813;28;20047;-72
2023/05/31 03:11:45;;;;;;;6.45;2.13;;;;;;;11.55;66.54;101923.09;4992313;28;20105;-70
2023/05/31 03:14:12;;;;;;;7.40;2.20;;;;;;;11.56;66.82;101931.03;4993610;28;20046;-69
2023/05/31 03:16:39;;;;;;;9.90;2.17;;;;;;;11.61;66.74;101927.94;4984565;28;20043;-69
2023/05/31 03:19:05;;;;;;;16.40;2.50;;;;;;;11.60;66.69;101937.00;4991850;28;20074;-69
2023/05/31 03:21:32;;;;;;;6.57;2.25;;;;;;;11.55;67.21;101932.03;4992172;28;20058;-70
2023/05/31 03:23:58;;;;;;;6.85;2.35;;;;;;;11.58;67.21;101930.91;4991289;28;20039;-70
2023/05/31 03:26:25;;;;;;;7.63;2.03;;;;;;;11.61;67.02;101939.53;4991301;28;20046;-69
2023/05/31 03:28:52;;;;;;;7.40;2.38;;;;;;;11.64;67.29;101938.41;4991668;28;20093;-69
2023/05/31 03:31:19;;;;;;;6.22;2.22;;;;;;;11.62;67.26;101927.81;5006400;28;20069;-71
2023/05/31 03:33:46;;;;;;;9.82;2.40;;;;;;;11.61;67.24;101927.94;5010898;28;20077;-70
2023/05/31 03:36:12;;;;;;;6.45;2.13;;;;;;;11.62;67.62;101937.69;5009562;28;20088;-71
2023/05/31 03:38:39;;;;;;;9.82;2.40;;;;;;;11.64;67.55;101927.66;5013269;28;20464;-69
2023/05/31 03:41:05;;;;;;;18.45;2.88;;;;;;;11.69;67.55;101930.84;5013028;28;20107;-71
2023/05/31 03:43:32;;;;;;;9.43;2.15;;;;;;;11.57;67.99;101931.91;5013862;28;20057;-72
2023/05/31 03:46:00;;;;;;;9.10;2.10;;;;;;;11.58;68.26;101929.06;5013850;28;20042;-71
2023/05/31 03:48:28;;;;;;;7.43;2.35;;;;;;;11.54;68.54;101933.00;5012980;28;20061;-71
2023/05/31 03:50:56;;;;;;;14.23;2.72;;;;;;;11.62;68.49;101932.31;5013322;28;20053;-71
2023/05/31 03:53:23;;;;;;;5.80;2.25;;;;;;;11.64;68.09;101933.88;5013414;28;20061;-69
2023/05/31 03:55:50;;;;;;;13.52;2.63;;;;;;;11.65;68.73;101930.19;5014083;28;20056;-70
2023/05/31 03:58:17;;;;;;;7.10;2.20;;;;;;;11.64;68.53;101933.88;5013617;28;20045;-69
2023/05/31 04:00:44;;;;;;;11.77;2.25;;;;;;;11.56;69.26;101932.88;5013703;28;20069;-70
2023/05/31 04:03:11;;;;;;;6.82;2.30;;;;;;;11.40;69.95;101931.56;5014493;28;20120;-70
2023/05/31 04:05:40;;;;;;;6.10;2.58;;;;;;;11.56;69.93;101930.19;5012851;28;20049;-73
2023/05/31 04:08:06;;;;;;;8.13;2.60;;;;;;;11.54;69.63;101930.31;5011842;28;20104;-73
2023/05/31 04:10:33;;;;;;;7.90;2.30;;;;;;;11.59;69.70;101924.56;4995718;28;20053;-73
2023/05/31 04:13:00;;;;;;;10.05;2.67;;;;;;;11.67;68.95;101928.28;5013077;28;20046;-73
2023/05/31 04:15:26;;;;;;;8.05;2.20;;;;;;;11.73;69.35;101926.88;5013391;28;20076;-73
2023/05/31 04:17:53;;;;;;;12.63;2.70;;;;;;;11.81;69.45;101923.50;5013421;28;20062;-73
2023/05/31 04:20:20;;;;;;;6.82;2.53;;;;;;;11.85;69.17;101930.28;5011951;28;20060;-72
2023/05/31 04:22:46;;;;;;;9.23;2.70;;;;;;;11.89;68.90;101926.31;5012265;28;20505;-73
2023/05/31 04:25:17;;;;;;;10.38;2.53;;;;;;;11.95;68.73;101922.25;5010374;28;20119;-73
2023/05/31 04:27:43;;;;;;;8.50;2.53;;;;;;;11.99;68.34;101923.66;5012246;28;20413;-73
2023/05/31 04:30:10;;;;;;;14.23;2.72;;;;;;;12.03;68.32;101917.00;5010902;28;20066;-73
2023/05/31 04:32:37;;;;;;;6.25;2.80;;;;;;;12.08;68.39;101922.81;5012622;28;20049;-73
2023/05/31 04:35:05;;;;;;;10.38;2.85;;;;;;;12.10;68.36;101921.66;5012171;28;20057;-73
2023/05/31 04:37:33;;;;;;;13.00;2.80;;;;;;;12.19;67.96;101924.53;5012330;28;20056;-73
2023/05/31 04:40:08;;;;;;;8.15;2.63;;;;;;;12.20;67.98;101928.91;5010834;28;20053;-73
2023/05/31 04:42:40;;;;;;;10.38;2.92;;;;;;;12.25;67.59;101929.34;4986871;28;20066;-72
2023/05/31 04:45:07;;;;;;;11.10;2.47;;;;;;;12.26;67.04;101934.56;5012003;28;20049;-73
2023/05/31 04:47:33;;;;;;;10.60;2.97;;;;;;;12.26;67.36;101931.03;5011964;28;20127;-73
2023/05/31 04:50:00;;;;;;;7.97;2.83;;;;;;;12.20;66.92;101934.28;5011738;28;20417;-72
2023/05/31 04:52:32;;;;;;;7.85;2.50;;;;;;;12.24;67.27;101925.78;5012427;28;20061;-72
2023/05/31 04:55:00;;;;;;;10.38;2.72;;;;;;;12.32;67.30;101931.31;5012355;28;20130;-73
2023/05/31 04:57:28;;;;;;;8.15;2.70;;;;;;;12.34;66.95;101931.16;5011912;28;20080;-73
2023/05/31 04:59:58;;;;;;;10.30;2.55;;;;;;;12.37;66.70;101939.78;5011924;28;20052;-73
2023/05/31 05:02:26;;;;;;;13.45;3.10;;;;;;;12.39;66.52;101927.06;5011840;28;20045;-73
2023/05/31 05:04:53;;;;;;;11.60;2.63;;;;;;;12.44;66.32;101928.47;5012087;28;20111;-74
2023/05/31 05:07:21;;;;;;;16.90;3.53;;;;;;;12.44;65.65;101925.78;5011712;28;20046;-73
2023/05/31 05:09:47;;;;;;;19.80;3.65;;;;;;;12.52;65.43;101931.28;5011924;28;20096;-73
2023/05/31 05:12:14;;;;;;;14.73;3.05;;;;;;;12.56;65.40;101932.72;5011994;28;20069;-73
2023/05/31 05:14:40;;;;;;;7.68;2.88;;;;;;;12.59;65.40;101933.28;5012510;28;20397;-73
2023/05/31 05:17:07;;;;;;;14.85;2.80;;;;;;;12.58;65.15;101925.31;4994438;28;20072;-75
2023/05/31 05:19:34;;;;;;;6.75;2.35;;;;;;;12.59;65.32;101929.72;5011759;28;20050;-73
2023/05/31 05:22:00;;;;;;;9.85;3.15;;;;;;;12.61;65.13;101933.13;5002611;28;20050;-73
2023/05/31 05:24:27;;;;;;;7.75;2.90;;;;;;;12.65;64.66;101931.84;4972668;28;20467;-73
2023/05/31 05:26:54;;;;;;;10.70;2.92;;;;;;;12.61;64.46;101927.75;4972587;28;20117;-74
2023/05/31 05:29:21;;;;;;;13.13;2.90;;;;;;;12.68;64.43;101928.84;4972530;28;20071;-82
2023/05/31 05:31:48;;;;;;;11.60;3.47;;;;;;;12.72;64.21;101924.03;4973994;28;20463;-83
2023/05/31 05:34:15;;;;;;;9.70;2.70;;;;;;;12.72;63.82;101919.50;4974141;28;20507;-82
2023/05/31 05:36:41;;;;;;;8.73;2.72;;;;;;;12.74;63.69;101920.25;4974315;28;20117;-82
2023/05/31 05:39:08;;;;;;;11.77;3.97;;;;;;;12.72;63.19;101914.09;4974417;28;20043;-82
2023/05/31 05:41:35;;;;;;;11.43;3.30;;;;;;;12.82;63.66;101920.34;4957114;28;20046;-83
2023/05/31 05:44:02;;;;;;;12.95;3.35;;;;;;;12.89;63.24;101915.22;4974548;28;20118;-83
2023/05/31 05:46:29;;;;;;;14.15;3.00;;;;;;;12.86;62.87;101915.53;4973868;28;20491;-80
2023/05/31 05:48:56;;;;;;;10.90;3.45;;;;;;;12.92;62.40;101908.72;4974418;28;20051;-82
2023/05/31 05:51:23;;;;;;;14.60;3.47;;;;;;;12.55;62.38;101918.38;4973578;28;20051;-81
2023/05/31 05:53:49;;;;;;;12.65;3.35;;;;;;;12.71;61.79;101911.56;4974958;28;20046;-81
2023/05/31 05:56:18;;;;;;;9.15;3.15;;;;;;;12.94;61.73;101912.09;4974581;28;20066;-81
2023/05/31 05:58:46;;;;;;;9.65;3.75;;;;;;;13.03;62.55;101913.91;4974122;28;20558;-81
2023/05/31 06:01:18;;;;;;;10.88;3.25;;;;;;;13.11;62.06;101914.88;4974971;28;20055;-80
2023/05/31 06:03:47;;;;;;;10.80;3.38;;;;;;;12.96;60.93;101918.19;4973635;28;20046;-81
2023/05/31 06:06:14;;;;;;;18.80;3.83;;;;;;;12.91;61.55;101920.50;4974191;28;20073;-78
2023/05/31 06:08:41;;;;;;;12.43;3.55;;;;;;;13.01;61.28;101915.91;4975146;28;20043;-82
2023/05/31 06:11:07;;;;;;;15.77;3.42;;;;;;;13.22;61.76;101918.38;4974809;28;20566;-84
2023/05/31 06:13:34;;;;;;;31.40;10.70;;;;;;;13.40;61.06;101916.59;4974899;28;20137;-84
2023/05/31 06:16:03;;;;;;;19.00;5.57;;;;;;;13.49;60.41;101910.31;4973863;28;20066;-83
2023/05/31 06:18:30;;;;;;;16.33;4.13;;;;;;;13.59;60.50;101915.63;4974974;28;20058;-81
2023/05/31 06:20:57;;;;;;;16.77;3.42;;;;;;;13.62;60.49;101914.47;4974187;28;20117;-84
2023/05/31 06:23:23;;;;;;;24.20;3.83;;;;;;;13.71;60.22;101918.97;4946867;28;20051;-84
2023/05/31 06:25:51;;;;;;;22.38;4.00;;;;;;;13.75;60.59;101923.06;4972021;28;20058;-82
2023/05/31 06:28:18;;;;;;;18.48;3.67;;;;;;;13.84;61.70;101922.19;4972347;28;20053;-83
2023/05/31 06:30:45;;;;;;;17.05;3.88;;;;;;;13.93;60.96;101917.72;4971649;28;20123;-81
2023/05/31 06:33:12;;;;;;;14.38;3.53;;;;;;;14.08;59.67;101916.19;4972762;28;20051;-80
2023/05/31 06:35:42;;;;;;;13.27;2.72;;;;;;;14.12;60.34;101917.56;4973983;28;20058;-81
2023/05/31 06:38:14;;;;;;;13.27;3.25;;;;;;;14.19;59.64;101918.66;4973654;28;20050;-81
2023/05/31 06:40:43;;;;;;;11.15;3.17;;;;;;;14.22;59.30;101910.25;4973152;28;20046;-81
2023/05/31 06:43:10;;;;;;;18.17;3.72;;;;;;;14.14;59.42;101907.47;4974399;28;20066;-80
2023/05/31 06:45:38;;;;;;;17.63;3.47;;;;;;;14.36;59.27;101908.84;4973378;28;20054;-81
2023/05/31 06:48:05;;;;;;;17.48;3.53;;;;;;;14.49;59.66;101914.66;4973393;28;20097;-81
2023/05/31 06:50:32;;;;;;;17.95;3.63;;;;;;;14.69;58.94;101912.63;4973440;28;20046;-81
2023/05/31 06:52:58;;;;;;;13.23;3.40;;;;;;;14.92;57.94;101917.53;4972626;28;20456;-81
2023/05/31 06:55:25;;;;;;;16.83;6.55;;;;;;;14.93;57.95;101909.25;4972722;28;20054;-80
2023/05/31 06:57:52;;;;;;;16.15;3.70;;;;;;;15.09;57.29;101916.63;4971339;28;20057;-81
2023/05/31 07:00:19;;;;;;;14.05;4.15;;;;;;;15.12;57.25;101916.31;4971605;28;20043;-80
2023/05/31 07:02:46;;;;;;;11.93;3.40;;;;;;;15.13;55.98;101915.28;4973379;28;20531;-81
2023/05/31 07:05:13;;;;;;;14.85;4.30;;;;;;;15.49;55.31;101912.38;4955887;28;20053;-81
2023/05/31 07:07:40;;;;;;;15.88;3.35;;;;;;;15.78;54.92;101911.16;4971786;28;20463;-82
2023/05/31 07:10:07;;;;;;;12.45;3.17;;;;;;;15.83;53.66;101912.34;4971960;28;20101;-82
2023/05/31 07:12:34;;;;;;;9.23;2.83;;;;;;;16.11;53.18;101907.47;4973435;28;20103;-82
2023/05/31 07:15:00;;;;;;;8.30;3.47;;;;;;;16.25;53.16;101895.13;4977151;28;20406;-84
2023/05/31 07:17:27;;;;;;;18.20;3.55;;;;;;;16.46;52.08;101891.06;4975423;28;20108;-82
2023/05/31 07:19:54;;;;;;;21.48;2.85;;;;;;;16.98;50.96;101887.94;4976796;28;20035;-74
2023/05/31 07:22:22;;;;;;;16.45;4.35;;;;;;;17.45;49.20;101885.25;4974772;28;20085;-73
2023/05/31 07:24:48;;;;;;;15.55;3.45;;;;;;;17.73;49.13;101876.63;4975198;28;20051;-73
2023/05/31 07:27:15;;;;;;;9.20;3.08;;;;;;;18.38;48.12;101878.84;4975027;28;20093;-74
2023/05/31 07:29:42;;;;;;;14.48;4.63;;;;;;;18.82;46.73;101874.50;4979894;28;20059;-74
2023/05/31 07:32:08;;;;;;;13.55;4.50;;;;;;;19.26;45.22;101869.06;5013728;28;20100;-74
2023/05/31 07:34:35;;;;;;;9.18;3.33;;;;;;;19.60;42.92;101864.88;5013711;28;20459;-74
2023/05/31 07:37:02;;;;;;;19.80;3.22;;;;;;;19.86;42.24;101867.88;5011979;28;20046;-74
2023/05/31 07:39:28;;;;;;;11.20;3.10;;;;;;;20.21;41.79;101865.28;5011769;28;20049;-74
2023/05/31 07:41:55;;;;;;;18.83;3.28;;;;;;;20.55;41.26;101864.53;4986646;28;20089;-74
2023/05/31 07:44:23;;;;;;;15.35;4.43;;;;;;;20.99;40.60;101857.03;4994277;28;20513;-74
2023/05/31 07:46:49;;;;;;;9.82;3.08;;;;;;;21.07;40.77;101862.31;5012157;28;20068;-76
2023/05/31 07:49:16;;;;;;;9.65;2.78;;;;;;;21.48;39.82;101861.47;5012422;28;20041;-76
2023/05/31 07:51:43;;;;;;;16.80;3.08;;;;;;;21.48;41.38;101851.38;5014147;28;20050;-73
2023/05/31 07:54:10;;;;;;;14.02;2.40;;;;;;;21.20;42.77;101854.22;5012990;28;20062;-73
2023/05/31 07:56:36;;;;;;;12.02;2.58;;;;;;;21.34;40.49;101855.97;5012607;28;20100;-72
2023/05/31 07:59:03;;;;;;;25.35;2.80;;;;;;;21.79;38.89;101859.06;5012696;28;20038;-72
2023/05/31 08:01:30;;;;;;;10.15;2.35;;;;;;;21.52;40.73;101860.84;5011927;28;20469;-73
2023/05/31 08:04:05;;;;;;;10.60;2.80;;;;;;;22.46;37.65;101856.34;5012282;28;20121;-72
2023/05/31 08:06:32;;;;;;;12.15;2.45;;;;;;;21.56;39.44;101858.53;5012970;28;20060;-73
2023/05/31 08:09:00;;;;;;;11.02;2.40;;;;;;;21.55;39.23;101862.34;5013220;28;20556;-73
2023/05/31 08:11:27;;;;;;;8.43;2.50;;;;;;;21.57;39.27;101858.34;5013376;28;20449;-72
2023/05/31 08:13:54;;;;;;;16.50;3.20;;;;;;;22.21;36.98;101853.41;5012732;28;20096;-72
2023/05/31 08:16:22;;;;;;;12.02;2.92;;;;;;;22.14;38.01;101858.03;5012562;28;20050;-72
2023/05/31 08:22:36;;;;;;;9.07;2.20;;;;;;;22.10;37.21;101854.88;5014986;28;20446;-74
2023/05/31 08:25:02;;;;;;;6.10;2.25;;;;;;;22.19;36.52;101850.91;5011869;28;20050;-74
2023/05/31 08:27:29;;;;;;;8.98;2.00;;;;;;;23.23;32.43;101847.38;5012123;28;20057;-73
2023/05/31 08:29:55;;;;;;;9.77;2.15;;;;;;;23.08;32.29;101845.91;5007377;28;20046;-73
2023/05/31 08:32:22;;;;;;;9.20;2.00;;;;;;;21.92;35.43;101846.47;4992626;28;20050;-73
2023/05/31 08:34:49;;;;;;;6.07;2.10;;;;;;;22.33;35.13;101838.91;4991784;28;20046;-73
2023/05/31 08:37:16;;;;;;;7.05;1.80;;;;;;;22.38;35.08;101843.72;4992666;28;20046;-73
2023/05/31 08:39:42;;;;;;;5.03;1.73;;;;;;;22.51;34.58;101851.13;5008995;28;20052;-71
2023/05/31 08:42:14;;;;;;;8.80;2.53;;;;;;;23.11;33.72;101854.53;5012361;28;20096;-72
2023/05/31 08:44:42;;;;;;;4.47;2.10;;;;;;;23.77;32.37;101847.94;5012433;28;20445;-72
2023/05/31 08:47:17;;;;;;;9.60;2.28;;;;;;;23.01;32.37;101846.78;5011108;28;20053;-72
2023/05/31 08:49:45;;;;;;;7.68;1.85;;;;;;;22.65;33.85;101858.25;5012366;28;20493;-73
2023/05/31 08:52:12;;;;;;;5.93;2.00;;;;;;;22.96;32.79;101846.59;5012102;28;20112;-71
2023/05/31 08:54:40;;;;;;;6.80;1.80;;;;;;;23.32;32.45;101847.94;5011517;28;20050;-73
2023/05/31 08:57:06;;;;;;;6.47;1.92;;;;;;;23.83;31.99;101846.22;5011667;28;20046;-73
2023/05/31 08:59:34;;;;;;;12.15;2.33;;;;;;;24.25;31.01;101843.75;5011061;28;20395;-73
2023/05/31 09:02:01;;;;;;;3.90;1.60;;;;;;;24.16;30.34;101843.19;5010335;28;20050;-72
2023/05/31 09:04:28;;;;;;;5.13;2.13;;;;;;;24.13;30.60;101839.03;4999611;28;20050;-73
2023/05/31 09:06:54;;;;;;;6.07;1.70;;;;;;;23.92;29.76;101832.03;4991408;28;20045;-74
2023/05/31 09:09:21;;;;;;;4.07;1.70;;;;;;;22.71;31.36;101832.78;4991980;28;20130;-72
2023/05/31 09:11:50;;;;;;;5.65;2.05;;;;;;;22.77;31.57;101836.53;4991329;28;20078;-73
2023/05/31 09:14:16;;;;;;;7.50;1.90;;;;;;;22.72;31.38;101825.41;4991167;28;20070;-73
2023/05/31 09:16:43;;;;;;;7.30;1.90;;;;;;;22.53;31.63;101827.13;4992582;28;20046;-73
2023/05/31 09:19:10;;;;;;;6.43;1.75;;;;;;;23.60;30.92;101825.66;4991641;28;20034;-73
2023/05/31 09:21:41;;;;;;;4.30;1.73;;;;;;;24.19;30.28;101818.06;4991844;28;20104;-74
2023/05/31 09:24:10;;;;;;;;;;;;;;;24.87;29.37;101815.28;4991714;28;20070;-71
2023/05/31 09:26:48;;;;;;;13.20;2.10;;;;;;;25.22;28.76;101814.66;4973918;28;19929;-72
2023/05/31 09:29:15;;;;;;;9.48;2.17;;;;;;;25.76;27.69;101820.25;4990614;28;20050;-72
2023/05/31 09:31:42;;;;;;;9.63;1.60;;;;;;;26.48;26.73;101807.19;4973591;28;20395;-72
2023/05/31 09:34:23;;;;;;;6.40;1.67;;;;;;;26.04;27.31;101811.34;4989007;28;20482;-73
2023/05/31 09:36:51;;;;;;;4.03;1.63;;;;;;;25.84;27.25;101804.25;4969893;28;20487;-73
2023/05/31 09:39:19;;;;;;;5.00;1.77;;;;;;;26.32;26.57;101810.66;4955986;28;20106;-72
2023/05/31 09:41:49;;;;;;;7.40;2.08;;;;;;;26.46;26.33;101803.84;4951423;28;20047;-72
2023/05/31 09:44:16;;;;;;;3.60;1.92;;;;;;;25.73;27.30;101793.25;4950116;28;20046;-73
2023/05/31 09:46:45;;;;;;;4.90;1.77;;;;;;;25.99;27.11;101792.78;4951460;28;20051;-71
2023/05/31 09:49:12;;;;;;;8.20;1.85;;;;;;;26.46;26.51;101792.81;4963430;28;20046;-71
2023/05/31 09:54:17;;;;;;;4.10;1.70;;;;;;;27.33;24.96;101783.66;5089830;23;20043;-73
2023/05/31 09:56:43;;;;;;;6.63;2.20;;;;;;;27.50;25.46;101781.75;4996503;28;20073;-73
2023/05/31 09:59:10;;;;;;;4.50;1.52;;;;;;;26.52;26.53;101786.38;4986328;28;20054;-73
2023/05/31 10:01:37;;;;;;;8.60;1.92;;;;;;;27.45;25.42;101781.69;4992579;28;20046;-73
2023/05/31 10:04:05;;;;;;;9.85;1.80;;;;;;;28.01;25.45;101781.81;5001999;28;20033;-73
2023/05/31 10:06:36;;;;;;;7.80;1.90;;;;;;;27.06;25.01;101785.28;5000657;28;20050;-72
2023/05/31 10:09:07;;;;;;;6.03;1.63;;;;;;;26.84;26.42;101785.13;4997894;28;20072;-73
2023/05/31 10:11:37;;;;;;;;;;;;;;;28.46;23.46;101777.22;4977251;28;20074;-73
2023/05/31 10:14:27;;;;;;;7.72;1.77;;;;;;;29.20;22.58;101765.75;4977890;28;19922;-72
2023/05/31 10:16:58;;;;;;;5.35;1.80;;;;;;;28.70;23.71;101773.16;4978776;28;20121;-71
2023/05/31 10:19:35;;;;;;;5.07;1.88;;;;;;;28.20;24.84;101766.63;4981986;28;20046;-72
2023/05/31 10:22:04;;;;;;;4.68;1.67;;;;;;;27.92;24.77;101767.59;4980167;28;20074;-72
2023/05/31 10:24:40;;;;;;;8.13;2.10;;;;;;;26.72;25.50;101755.66;4978361;28;20051;-72
2023/05/31 10:27:15;;;;;;;10.07;2.22;;;;;;;27.70;24.50;101763.91;4983662;28;20046;-71
2023/05/31 10:29:45;;;;;;;9.60;1.90;;;;;;;26.95;24.54;101768.56;5001168;28;20100;-72
2023/05/31 10:32:22;;;;;;;4.30;1.77;;;;;;;27.69;24.38;101757.53;4995216;28;20047;-71
2023/05/31 10:34:50;;;;;;;8.50;1.92;;;;;;;26.92;25.75;101760.78;4999008;28;20053;-72
2023/05/31 10:37:17;;;;;;;10.10;1.67;;;;;;;27.25;25.01;101757.31;4999095;28;20042;-72
2023/05/31 10:39:55;;;;;;;4.03;1.40;;;;;;;26.50;25.29;101755.50;4995547;28;20050;-72
2023/05/31 10:42:30;;;;;;;6.35;1.52;;;;;;;25.74;25.88;101756.44;4994464;28;20077;-72
2023/05/31 10:45:08;;;;;;;7.35;1.35;;;;;;;25.63;26.54;101749.00;4994308;28;20058;-72
2023/05/31 10:47:42;;;;;;;2.15;1.15;;;;;;;25.24;26.90;101745.78;4992860;28;20051;-72
2023/05/31 10:50:17;;;;;;;7.00;1.92;;;;;;;25.72;25.63;101753.06;4993338;28;20046;-72
2023/05/31 10:52:47;;;;;;;3.72;1.35;;;;;;;25.04;27.03;101737.81;4991751;28;20046;-72
2023/05/31 10:55:22;;;;;;;3.65;1.48;;;;;;;24.49;27.61;101744.19;4993279;28;20034;-72
2023/05/31 10:57:54;;;;;;;3.33;1.65;;;;;;;24.28;27.54;101748.19;4993414;28;20038;-72
2023/05/31 11:00:24;;;;;;;2.85;1.48;;;;;;;24.51;26.46;101741.19;4991335;28;20113;-72
2023/05/31 11:02:56;;;;;;;4.63;1.52;;;;;;;24.51;27.25;101733.81;4992606;28;20053;-73
2023/05/31 11:05:24;;;;;;;5.22;1.40;;;;;;;24.22;27.62;101732.63;4992883;28;20487;-73
2023/05/31 11:07:52;;;;;;;4.22;1.40;;;;;;;24.24;27.03;101732.41;4994140;28;20057;-73
2023/05/31 11:10:25;;;;;;;5.55;1.90;;;;;;;24.36;27.38;101725.94;4976985;28;20042;-71
2023/05/31 11:12:53;;;;;;;2.63;1.30;;;;;;;23.81;28.19;101725.00;4994779;28;20078;-72
2023/05/31 11:15:19;;;;;;;2.53;1.17;;;;;;;23.81;28.25;101717.63;4995089;28;20058;-72
2023/05/31 11:17:55;;;;;;;3.33;1.30;;;;;;;23.38;28.70;101721.13;4977540;28;20046;-71
2023/05/31 11:20:26;;;;;;;6.45;1.42;;;;;;;23.58;28.66;101720.97;4992973;28;20050;-72
2023/05/31 11:23:11;;;;;;;;;;;;;;;23.78;27.95;101714.50;4995243;28;20043;-72
2023/05/31 11:25:38;;;;;;;10.55;1.80;;;;;;;23.30;28.86;101717.81;4996578;28;19926;-72
2023/05/31 11:28:05;;;;;;;3.30;1.40;;;;;;;22.95;28.65;101715.47;4997186;28;20108;-72
2023/05/31 11:30:40;;;;;;;5.18;1.50;;;;;;;22.45;28.48;101712.50;4995814;28;20042;-72
2023/05/31 11:33:16;;;;;;;5.10;1.60;;;;;;;22.66;29.33;101711.38;4994718;28;20050;-72
2023/05/31 11:35:43;;;;;;;5.22;1.23;;;;;;;22.69;29.45;101703.59;4993122;28;20130;-72
2023/05/31 11:38:10;;;;;;;8.65;2.72;;;;;;;22.36;28.98;101708.28;4994391;28;20050;-73